createdAt,value
2019-05-23T00:02:09.619Z,11.22
2019-05-23T00:04:43.244Z,11.28
2019-05-23T00:07:16.390Z,9.85
2019-05-23T00:09:43.161Z,10.45
2019-05-23T00:12:29.509Z,10.78
2019-05-23T00:15:00.393Z,10.63
2019-05-23T00:20:18.033Z,10.05
2019-05-23T00:22:44.893Z,10.65
2019-05-23T00:25:14.082Z,11.53
2019-05-23T00:27:42.443Z,10.90
2019-05-23T00:30:12.304Z,12.13
2019-05-23T00:32:46.433Z,12.10
2019-05-23T00:35:14.419Z,12.55
2019-05-23T00:37:42.686Z,11.57
2019-05-23T00:40:11.998Z,13.70
2019-05-23T00:42:39.571Z,15.38
2019-05-23T00:45:07.074Z,11.68
2019-05-23T00:47:33.734Z,11.22
2019-05-23T00:50:01.515Z,11.50
2019-05-23T00:52:29.161Z,12.03
2019-05-23T00:54:57.540Z,10.90
2019-05-23T00:57:27.108Z,12.73
2019-05-23T00:59:54.388Z,11.35
2019-05-23T01:02:21.150Z,12.33
2019-05-23T01:04:48.638Z,13.35
2019-05-23T01:07:16.536Z,12.15
2019-05-23T01:09:43.572Z,13.53
2019-05-23T01:12:11.959Z,12.88
2019-05-23T01:14:38.618Z,13.88
2019-05-23T01:17:07.748Z,13.68
2019-05-23T01:19:34.824Z,14.43
2019-05-23T01:22:04.548Z,12.85
2019-05-23T01:24:34.611Z,13.57
2019-05-23T01:27:04.374Z,14.18
2019-05-23T01:29:38.868Z,16.00
2019-05-23T01:32:13.984Z,15.35
2019-05-23T01:34:41.532Z,17.12
2019-05-23T01:37:09.753Z,17.25
2019-05-23T01:39:37.126Z,17.80
2019-05-23T01:42:04.808Z,19.05
2019-05-23T01:44:32.086Z,18.12
2019-05-23T01:46:59.574Z,17.65
2019-05-23T01:49:26.534Z,19.77
2019-05-23T01:51:54.129Z,20.17
2019-05-23T01:54:21.222Z,22.87
2019-05-23T01:56:48.610Z,23.50
2019-05-23T01:59:15.916Z,23.38
2019-05-23T02:01:43.719Z,22.62
2019-05-23T02:04:10.899Z,25.20
2019-05-23T02:06:38.331Z,21.70
2019-05-23T02:09:07.224Z,18.65
2019-05-23T02:11:34.815Z,16.60
2019-05-23T02:14:03.524Z,17.15
2019-05-23T02:16:31.110Z,19.65
2019-05-23T02:18:57.978Z,17.65
2019-05-23T02:21:26.478Z,18.90
2019-05-23T02:23:53.659Z,20.90
2019-05-23T02:26:21.567Z,22.45
2019-05-23T02:28:48.459Z,23.70
2019-05-23T02:31:36.562Z,20.55
2019-05-23T02:34:04.670Z,17.75
2019-05-23T02:36:31.635Z,17.85
2019-05-23T02:39:16.770Z,17.30
2019-05-23T02:41:51.216Z,19.87
2019-05-23T02:44:20.739Z,18.52
2019-05-23T02:46:59.600Z,17.02
2019-05-23T02:49:30.275Z,14.25
2019-05-23T02:54:29.679Z,15.28
2019-05-23T02:56:59.087Z,16.10
2019-05-23T02:59:55.448Z,16.42
2019-05-23T03:02:57.787Z,15.95
2019-05-23T03:05:25.679Z,16.37
2019-05-23T03:07:53.367Z,16.25
2019-05-23T03:10:23.669Z,16.57
2019-05-23T03:12:52.256Z,19.35
2019-05-23T03:15:21.126Z,18.57
2019-05-23T03:17:51.929Z,23.07
2019-05-23T03:20:19.831Z,26.25
2019-05-23T03:22:53.886Z,30.55
2019-05-23T03:26:03.196Z,32.85
2019-05-23T03:28:38.588Z,30.85
2019-05-23T03:31:28.754Z,33.25
2019-05-23T03:33:40.240Z,34.45
2019-05-23T03:36:07.788Z,30.75
2019-05-23T03:38:34.865Z,33.85
2019-05-23T03:41:03.818Z,32.25
2019-05-23T03:43:31.111Z,28.60
2019-05-23T03:46:02.606Z,29.85
2019-05-23T03:48:30.687Z,27.62
2019-05-23T03:50:58.943Z,25.52
2019-05-23T03:53:27.630Z,22.58
2019-05-23T03:55:56.866Z,20.50
2019-05-23T03:58:24.782Z,20.77
2019-05-23T04:00:54.076Z,17.20
2019-05-23T04:03:21.727Z,17.60
2019-05-23T04:05:48.891Z,17.15
2019-05-23T04:08:16.525Z,16.32
2019-05-23T04:10:43.600Z,15.45
2019-05-23T04:13:10.875Z,15.72
2019-05-23T04:15:37.634Z,15.68
2019-05-23T04:18:04.413Z,16.85
2019-05-23T04:20:32.528Z,14.90
2019-05-23T04:22:59.821Z,14.53
2019-05-23T04:25:26.583Z,15.68
2019-05-23T04:27:53.737Z,15.98
2019-05-23T04:30:20.841Z,15.72
2019-05-23T04:32:47.638Z,15.95
2019-05-23T04:35:15.094Z,15.85
2019-05-23T04:37:41.781Z,14.13
2019-05-23T04:40:10.552Z,13.15
2019-05-23T04:42:37.230Z,13.48
2019-05-23T04:45:05.428Z,12.53
2019-05-23T04:47:32.527Z,12.10
2019-05-23T04:49:59.985Z,12.73
2019-05-23T04:52:26.995Z,11.97
2019-05-23T04:54:53.647Z,12.85
2019-05-23T04:57:20.414Z,12.50
2019-05-23T04:59:47.623Z,12.58
2019-05-23T05:02:25.329Z,12.90
2019-05-23T05:04:44.027Z,13.55
2019-05-23T05:07:10.863Z,13.60
2019-05-23T05:09:37.983Z,13.95
2019-05-23T05:12:05.202Z,13.22
2019-05-23T05:14:32.425Z,13.15
2019-05-23T05:16:59.306Z,11.70
2019-05-23T05:19:26.427Z,11.43
2019-05-23T05:21:53.279Z,11.35
2019-05-23T05:24:20.360Z,11.22
2019-05-23T05:26:47.130Z,10.70
2019-05-23T05:29:14.032Z,11.97
2019-05-23T05:31:40.944Z,10.10
2019-05-23T05:34:07.631Z,11.57
2019-05-23T05:36:34.341Z,10.45
2019-05-23T05:39:01.139Z,10.15
2019-05-23T05:41:28.308Z,9.98
2019-05-23T05:43:54.983Z,10.03
2019-05-23T05:46:22.899Z,10.32
2019-05-23T05:48:49.843Z,10.93
2019-05-23T05:51:16.804Z,10.15
2019-05-23T05:53:44.035Z,11.12
2019-05-23T05:56:11.133Z,9.78
2019-05-23T05:58:37.892Z,8.58
2019-05-23T06:01:08.302Z,8.13
2019-05-23T06:03:35.374Z,8.08
2019-05-23T06:06:11.791Z,8.85
2019-05-23T06:08:39.977Z,8.70
2019-05-23T06:11:06.823Z,8.83
2019-05-23T06:13:33.979Z,8.88
2019-05-23T06:16:00.931Z,9.10
2019-05-23T06:18:27.627Z,9.55
2019-05-23T06:20:54.956Z,9.38
2019-05-23T06:23:22.503Z,8.78
2019-05-23T06:25:49.594Z,8.60
2019-05-23T06:28:17.863Z,9.08
2019-05-23T06:30:45.906Z,9.68
2019-05-23T06:33:22.693Z,9.85
2019-05-23T06:35:41.663Z,8.68
2019-05-23T06:38:08.431Z,9.43
2019-05-23T06:40:36.529Z,9.53
2019-05-23T06:43:03.762Z,9.45
2019-05-23T06:45:30.969Z,9.73
2019-05-23T06:47:57.749Z,9.28
2019-05-23T06:50:24.923Z,9.25
2019-05-23T06:52:51.823Z,10.10
2019-05-23T06:55:18.658Z,10.70
2019-05-23T06:57:45.401Z,11.20
2019-05-23T07:00:14.452Z,10.95
2019-05-23T07:02:42.043Z,11.33
2019-05-23T07:05:09.135Z,11.50
2019-05-23T07:07:36.750Z,11.40
2019-05-23T07:10:05.003Z,11.70
2019-05-23T07:12:32.149Z,12.13
2019-05-23T07:14:58.986Z,13.25
2019-05-23T07:17:26.643Z,13.35
2019-05-23T07:19:53.450Z,12.07
2019-05-23T07:22:21.146Z,12.30
2019-05-23T07:24:57.965Z,13.15
2019-05-23T07:27:18.108Z,13.17
2019-05-23T07:29:44.909Z,12.68
2019-05-23T07:32:11.788Z,13.65
2019-05-23T07:34:38.596Z,14.15
2019-05-23T07:37:05.275Z,12.43
2019-05-23T07:39:31.985Z,12.03
2019-05-23T07:41:58.567Z,13.98
2019-05-23T07:44:26.255Z,14.25
2019-05-23T07:46:53.520Z,13.48
2019-05-23T07:49:20.249Z,13.48
2019-05-23T07:51:46.932Z,13.15
2019-05-23T07:54:37.744Z,13.15
2019-05-23T07:57:07.721Z,8.65
2019-05-23T07:59:35.031Z,11.43
2019-05-23T08:02:14.166Z,10.00
2019-05-23T08:04:40.957Z,9.90
2019-05-23T08:07:09.440Z,10.32
2019-05-23T08:09:36.127Z,8.60
2019-05-23T08:12:03.351Z,8.38
2019-05-23T08:14:30.114Z,8.80
2019-05-23T08:16:56.996Z,7.22
2019-05-23T08:19:23.760Z,7.58
2019-05-23T08:21:50.541Z,7.00
2019-05-23T08:24:17.793Z,7.42
2019-05-23T08:26:46.980Z,8.70
2019-05-23T08:29:25.577Z,7.40
2019-05-23T08:31:42.669Z,6.57
2019-05-23T08:34:09.450Z,6.78
2019-05-23T08:36:36.231Z,6.47
2019-05-23T08:39:07.791Z,7.15
2019-05-23T08:41:34.564Z,6.80
2019-05-23T08:44:01.930Z,6.30
2019-05-23T08:46:29.106Z,6.67
2019-05-23T08:48:56.180Z,6.97
2019-05-23T08:51:22.877Z,6.90
2019-05-23T08:53:49.649Z,6.35
2019-05-23T08:56:19.479Z,7.45
2019-05-23T08:58:45.954Z,5.85
2019-05-23T09:01:12.743Z,5.75
2019-05-23T09:03:39.611Z,6.40
2019-05-23T09:06:08.198Z,6.25
2019-05-23T09:08:35.982Z,6.30
2019-05-23T09:11:02.811Z,6.10
2019-05-23T09:13:30.305Z,6.42
2019-05-23T09:15:56.997Z,7.45
2019-05-23T09:18:23.856Z,8.35
2019-05-23T09:20:50.520Z,9.28
2019-05-23T09:23:17.110Z,8.05
2019-05-23T09:25:43.996Z,10.50
2019-05-23T09:28:12.279Z,8.00
2019-05-23T09:30:39.061Z,8.75
2019-05-23T09:33:06.493Z,9.70
2019-05-23T09:35:33.859Z,9.18
2019-05-23T09:38:00.441Z,9.33
2019-05-23T09:40:27.214Z,8.65
2019-05-23T09:42:54.111Z,8.85
2019-05-23T09:45:20.918Z,8.48
2019-05-23T09:47:50.887Z,8.00
2019-05-23T09:50:19.660Z,10.60
2019-05-23T09:52:46.519Z,10.80
2019-05-23T09:55:13.486Z,9.45
2019-05-23T09:57:40.620Z,9.28
2019-05-23T10:00:10.186Z,11.25
2019-05-23T10:05:05.668Z,8.93
2019-05-23T10:07:32.761Z,8.50
2019-05-23T10:09:59.455Z,7.97
2019-05-23T10:12:26.203Z,6.60
2019-05-23T10:14:52.951Z,6.58
2019-05-23T10:17:19.639Z,7.05
2019-05-23T10:19:46.435Z,6.33
2019-05-23T10:22:34.576Z,6.72
2019-05-23T10:25:01.369Z,6.42
2019-05-23T10:27:29.391Z,6.75
2019-05-23T10:29:56.150Z,6.50
2019-05-23T10:32:23.529Z,7.28
2019-05-23T10:34:50.293Z,7.55
2019-05-23T10:37:18.195Z,6.83
2019-05-23T10:39:50.602Z,6.25
2019-05-23T10:42:18.453Z,5.92
2019-05-23T10:44:45.333Z,6.10
2019-05-23T10:47:11.921Z,5.60
2019-05-23T10:49:41.080Z,5.87
2019-05-23T10:52:07.750Z,6.17
2019-05-23T10:54:34.536Z,6.70
2019-05-23T10:57:01.233Z,7.80
2019-05-23T10:59:27.901Z,7.78
2019-05-23T11:01:55.188Z,7.70
2019-05-23T11:04:21.825Z,9.68
2019-05-23T11:06:49.545Z,8.63
2019-05-23T11:09:16.421Z,8.40
2019-05-23T11:11:43.327Z,9.28
2019-05-23T11:14:10.405Z,9.63
2019-05-23T11:16:37.177Z,10.68
2019-05-23T11:19:04.768Z,9.10
2019-05-23T11:21:31.455Z,8.98
2019-05-23T11:23:59.506Z,10.93
2019-05-23T11:26:26.521Z,8.73
2019-05-23T11:28:53.400Z,9.55
2019-05-23T11:34:08.369Z,9.10
2019-05-23T11:36:36.715Z,8.65
2019-05-23T11:39:06.351Z,10.20
2019-05-23T11:41:33.547Z,9.83
2019-05-23T11:44:00.714Z,10.45
2019-05-23T11:46:30.180Z,10.75
2019-05-23T11:48:56.860Z,10.32
2019-05-23T11:51:25.622Z,8.93
2019-05-23T11:54:07.125Z,8.88
2019-05-23T11:56:21.553Z,8.38
2019-05-23T11:58:48.349Z,10.43
2019-05-23T12:01:40.628Z,10.20
2019-05-23T12:04:27.081Z,9.75
2019-05-23T12:06:58.273Z,10.80
2019-05-23T12:09:26.491Z,10.30
2019-05-23T12:11:53.379Z,9.40
2019-05-23T12:14:20.174Z,9.48
2019-05-23T12:16:47.876Z,8.20
2019-05-23T12:19:15.450Z,10.48
2019-05-23T12:21:42.168Z,11.00
2019-05-23T12:24:09.069Z,10.65
2019-05-23T12:26:35.859Z,11.08
2019-05-23T12:29:03.139Z,9.43
2019-05-23T12:31:29.712Z,9.78
2019-05-23T12:33:56.527Z,9.23
2019-05-23T12:36:23.684Z,10.20
2019-05-23T12:38:50.492Z,9.58
2019-05-23T12:41:19.468Z,7.28
2019-05-23T12:43:46.183Z,9.48
2019-05-23T12:46:13.021Z,10.65
2019-05-23T12:48:58.787Z,9.28
2019-05-23T12:51:29.823Z,7.78
2019-05-23T12:53:56.388Z,7.05
2019-05-23T12:56:24.338Z,7.58
2019-05-23T12:58:51.398Z,6.05
2019-05-23T13:01:39.186Z,4.12
2019-05-23T13:04:27.390Z,4.62
2019-05-23T13:06:58.267Z,5.10
2019-05-23T13:09:25.070Z,3.80
2019-05-23T13:11:52.044Z,4.17
2019-05-23T13:14:19.439Z,5.15
2019-05-23T13:16:46.531Z,5.00
2019-05-23T13:19:13.441Z,4.28
2019-05-23T13:21:40.279Z,4.33
2019-05-23T13:24:07.534Z,4.42
2019-05-23T13:26:34.308Z,4.33
2019-05-23T13:29:24.574Z,4.00
2019-05-23T13:34:17.948Z,5.17
2019-05-23T13:36:45.040Z,4.78
2019-05-23T13:39:11.849Z,5.33
2019-05-23T13:41:38.633Z,4.25
2019-05-23T13:44:05.795Z,5.10
2019-05-23T13:46:32.997Z,4.92
2019-05-23T13:48:59.921Z,4.78
2019-05-23T13:51:26.736Z,4.72
2019-05-23T13:53:53.445Z,3.35
2019-05-23T13:56:20.310Z,4.05
2019-05-23T13:58:47.441Z,4.08
2019-05-23T14:01:14.261Z,3.62
2019-05-23T14:03:42.055Z,5.08
2019-05-23T14:06:08.882Z,5.42
2019-05-23T14:08:35.647Z,4.65
2019-05-23T14:11:02.648Z,5.30
2019-05-23T14:13:30.535Z,5.60
2019-05-23T14:15:57.508Z,5.30
2019-05-23T14:18:26.294Z,5.25
2019-05-23T14:20:53.190Z,4.78
2019-05-23T14:23:27.727Z,4.20
2019-05-23T14:25:54.825Z,5.05
2019-05-23T14:28:21.656Z,4.65
2019-05-23T14:31:10.944Z,4.05
2019-05-23T14:33:43.855Z,4.75
2019-05-23T14:36:18.718Z,4.35
2019-05-23T14:38:45.298Z,4.72
2019-05-23T14:41:12.169Z,4.62
2019-05-23T14:43:39.536Z,4.20
2019-05-23T14:46:08.873Z,3.85
2019-05-23T14:48:52.582Z,4.30
2019-05-23T14:51:32.359Z,3.47
2019-05-23T14:54:09.817Z,4.17
2019-05-23T14:56:37.131Z,4.28
2019-05-23T14:59:04.177Z,4.33
2019-05-23T15:01:32.889Z,4.30
2019-05-23T15:03:59.983Z,4.08
2019-05-23T15:06:27.592Z,4.35
2019-05-23T15:08:54.459Z,4.85
2019-05-23T15:11:21.297Z,3.70
2019-05-23T15:13:48.182Z,3.90
2019-05-23T15:16:16.012Z,4.80
2019-05-23T15:18:42.786Z,4.28
2019-05-23T15:21:09.579Z,3.98
2019-05-23T15:23:36.310Z,6.08
2019-05-23T15:26:21.535Z,6.08
2019-05-23T15:28:33.184Z,5.70
2019-05-23T15:30:59.879Z,5.37
2019-05-23T15:33:26.617Z,5.08
2019-05-23T15:35:53.346Z,4.90
2019-05-23T15:38:19.936Z,6.83
2019-05-23T15:40:46.750Z,6.90
2019-05-23T15:43:13.547Z,7.50
2019-05-23T15:45:40.389Z,6.80
2019-05-23T15:48:07.063Z,5.85
2019-05-23T15:50:39.858Z,6.10
2019-05-23T15:53:15.623Z,6.92
2019-05-23T15:56:26.121Z,6.35
2019-05-23T15:58:54.640Z,7.55
2019-05-23T16:01:30.631Z,6.35
2019-05-23T16:04:03.803Z,7.20
2019-05-23T16:06:32.531Z,7.37
2019-05-23T16:08:59.611Z,7.10
2019-05-23T16:11:26.608Z,7.53
2019-05-23T16:13:53.376Z,8.85
2019-05-23T16:16:20.294Z,9.38
2019-05-23T16:18:47.834Z,9.33
2019-05-23T16:21:15.037Z,8.73
2019-05-23T16:23:41.839Z,8.68
2019-05-23T16:26:11.631Z,8.35
2019-05-23T16:28:37.197Z,8.65
2019-05-23T16:31:04.014Z,8.53
2019-05-23T16:33:30.801Z,9.23
2019-05-23T16:35:57.650Z,8.45
2019-05-23T16:38:24.431Z,8.65
2019-05-23T16:40:51.223Z,7.87
2019-05-23T16:43:18.012Z,9.30
2019-05-23T16:45:44.978Z,8.53
2019-05-23T16:48:11.778Z,8.50
2019-05-23T16:50:38.591Z,8.98
2019-05-23T16:53:05.358Z,9.80
2019-05-23T16:55:57.382Z,8.40
2019-05-23T16:58:42.061Z,9.55
2019-05-23T17:01:28.562Z,8.78
2019-05-23T17:04:17.617Z,9.70
2019-05-23T17:06:50.754Z,9.60
2019-05-23T17:09:39.192Z,9.20
2019-05-23T17:12:27.528Z,9.33
2019-05-23T17:14:59.102Z,8.60
2019-05-23T17:18:02.468Z,8.38
2019-05-23T17:20:30.020Z,7.60
2019-05-23T17:23:05.707Z,7.17
2019-05-23T17:25:52.949Z,7.28
2019-05-23T17:28:26.654Z,7.45
2019-05-23T17:30:57.163Z,7.42
2019-05-23T17:35:50.472Z,8.30
2019-05-23T17:38:17.303Z,7.62
2019-05-23T17:40:44.134Z,8.33
2019-05-23T17:43:11.434Z,7.97
2019-05-23T17:45:39.754Z,8.00
2019-05-23T17:48:06.612Z,7.65
2019-05-23T17:50:34.860Z,7.67
2019-05-23T17:53:02.021Z,7.97
2019-05-23T17:55:29.450Z,8.45
2019-05-23T17:57:57.013Z,8.38
2019-05-23T18:00:28.145Z,3.52
2019-05-23T18:02:54.943Z,4.55
2019-05-23T18:05:22.451Z,3.08
2019-05-23T18:07:49.233Z,3.47
2019-05-23T18:10:16.735Z,3.52
2019-05-23T18:12:43.624Z,3.52
2019-05-23T18:15:12.877Z,3.37
2019-05-23T18:17:39.573Z,3.30
2019-05-23T18:20:07.537Z,3.42
2019-05-23T18:22:36.437Z,3.17
2019-05-23T18:25:03.832Z,3.02
2019-05-23T18:27:31.335Z,3.05
2019-05-23T18:29:58.314Z,3.15
2019-05-23T18:32:27.689Z,3.52
2019-05-23T18:34:55.587Z,3.60
2019-05-23T18:37:22.580Z,3.67
2019-05-23T18:39:49.362Z,3.95
2019-05-23T18:42:16.978Z,4.35
2019-05-23T18:44:44.179Z,3.95
2019-05-23T18:47:17.549Z,4.00
2019-05-23T18:49:44.527Z,4.15
2019-05-23T18:52:11.430Z,4.70
2019-05-23T18:54:38.127Z,4.45
2019-05-23T18:57:04.922Z,4.42
2019-05-23T18:59:31.995Z,4.08
2019-05-23T19:01:58.798Z,4.75
2019-05-23T19:04:25.782Z,4.45
2019-05-23T19:06:53.090Z,4.53
2019-05-23T19:09:21.667Z,5.15
2019-05-23T19:11:48.470Z,5.00
2019-05-23T19:14:15.354Z,4.85
2019-05-23T19:16:42.160Z,4.60
2019-05-23T19:19:09.106Z,4.65
2019-05-23T19:21:36.081Z,5.42
2019-05-23T19:24:04.177Z,4.78
2019-05-23T19:26:30.982Z,5.83
2019-05-23T19:28:57.655Z,5.72
2019-05-23T19:31:25.488Z,5.55
2019-05-23T19:33:52.332Z,5.50
2019-05-23T19:36:19.325Z,6.53
2019-05-23T19:38:46.579Z,5.37
2019-05-23T19:41:13.392Z,6.17
2019-05-23T19:43:40.837Z,6.15
2019-05-23T19:46:07.624Z,6.00
2019-05-23T19:48:35.863Z,5.70
2019-05-23T19:51:02.871Z,6.28
2019-05-23T19:53:30.299Z,5.97
2019-05-23T19:55:57.338Z,6.17
2019-05-23T19:58:24.209Z,6.33
2019-05-23T20:00:51.079Z,6.25
2019-05-23T20:03:18.216Z,6.10
2019-05-23T20:05:45.490Z,5.87
2019-05-23T20:08:12.434Z,6.40
2019-05-23T20:10:39.973Z,6.33
2019-05-23T20:13:06.764Z,6.33
2019-05-23T20:15:33.759Z,6.17
2019-05-23T20:18:00.735Z,6.33
2019-05-23T20:20:27.734Z,6.28
2019-05-23T20:22:54.614Z,6.25
2019-05-23T20:25:21.738Z,6.40
2019-05-23T20:27:48.560Z,7.12
2019-05-23T20:30:59.675Z,6.37
2019-05-23T20:33:27.108Z,6.80
2019-05-23T20:35:54.281Z,6.92
2019-05-23T20:38:22.470Z,6.58
2019-05-23T20:40:49.147Z,6.95
2019-05-23T20:43:15.983Z,6.53
2019-05-23T20:45:42.793Z,6.28
2019-05-23T20:48:09.640Z,7.60
2019-05-23T20:50:36.409Z,6.37
2019-05-23T20:53:03.772Z,7.83
2019-05-23T20:55:30.578Z,6.45
2019-05-23T20:57:57.411Z,6.08
2019-05-23T21:00:36.327Z,7.70
2019-05-23T21:03:03.291Z,6.58
2019-05-23T21:05:31.489Z,6.42
2019-05-23T21:07:58.275Z,6.65
2019-05-23T21:10:44.998Z,6.62
2019-05-23T21:13:11.758Z,7.12
2019-05-23T21:15:40.840Z,6.97
2019-05-23T21:18:07.251Z,7.12
2019-05-23T21:20:34.061Z,7.97
2019-05-23T21:23:00.955Z,8.03
2019-05-23T21:25:28.292Z,10.00
2019-05-23T21:27:55.151Z,8.23
2019-05-23T21:30:21.855Z,7.53
2019-05-23T21:32:48.625Z,7.25
2019-05-23T21:35:15.260Z,6.78
2019-05-23T21:37:42.049Z,8.05
2019-05-23T21:40:13.435Z,7.42
2019-05-23T21:42:47.651Z,8.78
2019-05-23T21:45:08.955Z,7.53
2019-05-23T21:47:35.724Z,7.40
2019-05-23T21:50:02.875Z,8.10
2019-05-23T21:52:29.453Z,7.25
2019-05-23T21:54:56.246Z,7.75
2019-05-23T21:57:22.931Z,7.80
2019-05-23T21:59:49.687Z,8.50
2019-05-23T22:02:24.728Z,8.20
2019-05-23T22:04:56.485Z,9.15
2019-05-23T22:07:23.257Z,8.85
2019-05-23T22:09:50.054Z,9.68
2019-05-23T22:12:17.246Z,10.60
2019-05-23T22:14:45.135Z,10.88
2019-05-23T22:17:11.920Z,12.00
2019-05-23T22:19:38.618Z,11.75
2019-05-23T22:22:05.803Z,12.03
2019-05-23T22:24:32.603Z,12.68
2019-05-23T22:26:59.381Z,12.65
2019-05-23T22:29:26.173Z,14.35
2019-05-23T22:31:56.402Z,13.80
2019-05-23T22:34:37.271Z,12.75
2019-05-23T22:37:09.872Z,10.15
2019-05-23T22:39:36.558Z,10.82
2019-05-23T22:42:05.146Z,10.18
2019-05-23T22:44:31.944Z,10.55
2019-05-23T22:46:58.761Z,12.10
2019-05-23T22:49:25.440Z,11.55
2019-05-23T22:51:52.249Z,12.00
2019-05-23T22:54:19.055Z,11.65
2019-05-23T22:56:45.879Z,11.93
2019-05-23T22:59:12.652Z,12.73
2019-05-23T23:01:39.463Z,13.45
2019-05-23T23:04:06.682Z,14.15
2019-05-23T23:09:07.977Z,14.83
2019-05-23T23:11:34.867Z,14.15
2019-05-23T23:14:01.636Z,14.68
2019-05-23T23:16:28.334Z,13.15
2019-05-23T23:18:56.187Z,16.07
2019-05-23T23:21:22.874Z,15.75
2019-05-23T23:23:50.150Z,15.35
2019-05-23T23:26:16.940Z,16.23
2019-05-23T23:28:45.851Z,15.75
2019-05-23T23:31:12.866Z,16.35
2019-05-23T23:33:39.641Z,15.95
2019-05-23T23:36:06.320Z,16.25
2019-05-23T23:38:34.006Z,16.67
2019-05-23T23:41:00.685Z,16.20
2019-05-23T23:43:27.760Z,14.55
2019-05-23T23:46:12.551Z,15.20
2019-05-23T23:48:58.482Z,15.70
2019-05-23T23:51:43.254Z,15.45
2019-05-23T23:54:28.120Z,15.60
2019-05-23T23:57:13.465Z,15.98
2019-05-23T23:59:39.916Z,15.95
